Aeroporto :
LOGIN :

Iscrizione | Disclaimer

   EN    FR    IT 

 










Sommario :    VFR   VFR Marginale   IFR   IFR Intensivo   IFR Molto Intensivo
Visibilità : 
Base nubi : 
>= 8 km
>= 3000ft
5 / 8 km
1000 / 3000 ft
1500m / 5 km
500 / 1000 ft
800 / 1500m
200 / 500 ft
< 800m
< 200 ft
Simboli :   Temporali  Nebbia  Neve Forte  Precipitazioni Forti  Vento > 20 kt
SIGMETs :   Varie  Temporali  Ghiacco  Turbolenza  Onda orograficha  Ceneri Vulcaniche






- Altitudine del aeroporto : 157 ft
- Codice IATA : LIL


LFQQ - Lille Lesquin

ULTIMO METAR :
  • 181200Z AUTO 16012KT 8000 SCT038/// SCT046/// BKN070/// ///CB 28/18 Q1010 TEMPO 18017G27KT 1200 TSRAGS BKN007 BKN030CB

METARs OBSOLETI :
  • 181130Z AUTO 18010KT 130V200 8000 FEW036 SCT042 BKN140 28/18 Q1010 TEMPO 18017G27KT 1200 TSRAGS BKN007 BKN030CB
  • 181100Z AUTO 17010KT 130V190 8000 SCT035 SCT042 28/19 Q1010 TEMPO 18017G27KT 1200 TSRAGS BKN007 BKN030CB
  • 181030Z AUTO 16010KT 130V190 8000 FEW029 27/19 Q1010 TEMPO 18017G27KT 1200 TSRAGS BKN007 BKN030CB
  • 181000Z AUTO 16009KT 110V210 8000 FEW026 27/19 Q1010 TEMPO 18017G27KT 1200 TSRAGS BKN007 BKN030CB
  • 180930Z AUTO 18008KT 150V210 8000 FEW023 26/19 Q1010 TEMPO 18017G27KT 1200 TSRAGS BKN007 BKN030CB

TAF TAF LFQQ
Valido dal 18 a 12 ore il 19 a 18 ore UTC


181100Z 1812/1918 18010KT 9999 SCT030
TEMPO 1812/1819 3000 SHRA BKN030CB
PROB40
TEMPO 1812/1819 18017G27KT 1200 TSRAGS BKN007 BKN030CB
BECMG 1820/1823 24010KT BKN007
PROB30 1823/1906 OVC003
BECMG 1906/1908 BKN012
BECMG 1908/1911 SCT020
PROB30
TEMPO 1914/1918 4000 SHRA BKN040CB
ATIS : +33 3 20 16 19 54



MetMap, La meteo Aeronautica in un colpo d'occhio ! - Copyright ORBIFLY Dicembre 2007 - Disclaimer

ORBIFLY MET'MAP TEAM :

Programmazione e sviluppo : Alexandra Zaïnal
Concezione : Baudouin d'Aumeries
Aiuto per la programmazione : Marc-Olivier Méhu
Supporto tecnico e logistico : Manuel Goepfert
Aiuto per la traduzione : Arnaldo La Scala

Contatto : metmap@orbifly.com




FONTI E CREDITI :

   NOAA